createdAt,value
2022-11-07T00:03:24.313Z,19.89
2022-11-07T00:08:32.162Z,19.82
2022-11-07T00:13:34.445Z,19.82
2022-11-07T00:18:36.774Z,19.81
2022-11-07T00:23:41.249Z,19.89
2022-11-07T00:28:44.371Z,19.81
2022-11-07T00:33:47.182Z,19.84
2022-11-07T00:38:49.320Z,19.82
2022-11-07T00:43:52.312Z,19.86
2022-11-07T00:48:54.239Z,19.78
2022-11-07T00:53:56.260Z,19.82
2022-11-07T00:58:59.558Z,19.87
2022-11-07T01:04:20.615Z,19.84
2022-11-07T01:09:23.001Z,19.83
2022-11-07T01:14:25.351Z,19.87
2022-11-07T01:19:27.521Z,19.83
2022-11-07T01:24:29.721Z,19.86
2022-11-07T01:29:31.671Z,19.75
2022-11-07T01:34:33.543Z,19.84
2022-11-07T01:39:35.482Z,19.78
2022-11-07T01:44:37.449Z,19.76
2022-11-07T01:49:43.217Z,19.80
2022-11-07T01:54:48.266Z,19.82
2022-11-07T01:59:53.303Z,19.82
2022-11-07T02:04:58.166Z,19.80
2022-11-07T02:10:00.395Z,19.77
2022-11-07T02:15:02.564Z,19.78
2022-11-07T02:20:04.840Z,19.82
2022-11-07T02:25:13.277Z,19.73
2022-11-07T02:30:21.691Z,19.79
2022-11-07T02:35:45.580Z,19.68
2022-11-07T02:40:55.079Z,19.78
2022-11-07T02:46:00.617Z,19.74
2022-11-07T02:51:02.497Z,19.73
2022-11-07T02:56:05.102Z,19.79
2022-11-07T03:01:07.549Z,19.76
2022-11-07T03:06:12.456Z,19.74
2022-11-07T03:11:14.804Z,19.75
2022-11-07T03:16:18.129Z,19.72
2022-11-07T03:21:20.045Z,19.77
2022-11-07T03:26:22.018Z,19.67
2022-11-07T03:31:23.894Z,19.68
2022-11-07T03:36:25.801Z,19.69
2022-11-07T03:41:27.780Z,19.73
2022-11-07T03:46:29.772Z,19.80
2022-11-07T03:51:31.644Z,19.76
2022-11-07T03:56:33.453Z,19.70
2022-11-07T04:01:35.412Z,19.80
2022-11-07T04:06:37.229Z,19.70
2022-11-07T04:11:57.850Z,19.70
2022-11-07T04:17:18.688Z,19.72
2022-11-07T04:22:20.766Z,19.78
2022-11-07T04:27:41.455Z,19.82
2022-11-07T04:32:43.433Z,19.81
2022-11-07T04:37:45.523Z,19.79
2022-11-07T04:42:48.329Z,19.80
2022-11-07T04:47:50.251Z,19.77
2022-11-07T04:52:52.122Z,19.83
2022-11-07T04:57:54.049Z,19.76
2022-11-07T05:02:56.268Z,19.81
2022-11-07T05:07:58.302Z,19.76
2022-11-07T05:13:00.348Z,19.78
2022-11-07T05:18:02.488Z,19.73
2022-11-07T05:23:19.272Z,19.73
2022-11-07T05:28:31.263Z,19.68
2022-11-07T05:33:36.283Z,19.70
2022-11-07T05:38:39.870Z,19.68
2022-11-07T05:43:41.889Z,19.69
2022-11-07T05:48:43.876Z,19.65
2022-11-07T05:53:45.849Z,19.63
2022-11-07T05:58:47.602Z,19.66
2022-11-07T06:03:49.475Z,19.66
2022-11-07T06:08:51.525Z,19.71
2022-11-07T06:13:54.381Z,19.69
2022-11-07T06:18:56.565Z,19.73
2022-11-07T06:23:59.474Z,19.68
2022-11-07T06:29:01.478Z,19.69
2022-11-07T06:34:04.042Z,19.61
2022-11-07T06:39:06.103Z,19.66
2022-11-07T06:44:08.079Z,19.67
2022-11-07T06:49:10.687Z,19.68
2022-11-07T06:54:13.543Z,19.69
2022-11-07T06:59:15.614Z,19.74
2022-11-07T07:04:17.692Z,19.67
2022-11-07T07:09:19.837Z,19.72
2022-11-07T07:14:21.832Z,19.72
2022-11-07T07:19:23.888Z,19.70
2022-11-07T07:24:25.753Z,19.69
2022-11-07T07:29:27.723Z,19.73
2022-11-07T07:34:30.599Z,19.74
2022-11-07T07:39:32.432Z,19.74
2022-11-07T07:44:34.608Z,19.78
2022-11-07T07:49:36.852Z,19.70
2022-11-07T07:54:38.791Z,19.75
2022-11-07T07:59:41.026Z,19.68
2022-11-07T08:04:43.777Z,19.70
2022-11-07T08:09:45.829Z,19.70
2022-11-07T08:14:47.718Z,19.70
2022-11-07T08:19:49.819Z,19.71
2022-11-07T08:24:51.861Z,19.70
2022-11-07T08:29:54.006Z,19.68
2022-11-07T08:34:56.422Z,19.70
2022-11-07T08:39:58.568Z,19.74
2022-11-07T08:45:00.857Z,19.70
2022-11-07T08:50:03.133Z,19.68
2022-11-07T08:55:06.059Z,19.70
2022-11-07T09:00:08.501Z,19.80
2022-11-07T09:05:10.724Z,19.65
2022-11-07T09:10:12.674Z,19.74
2022-11-07T09:15:14.918Z,19.76
2022-11-07T09:20:17.519Z,19.73
2022-11-07T09:25:19.689Z,19.76
2022-11-07T09:30:22.496Z,19.70
2022-11-07T09:35:24.667Z,19.62
2022-11-07T09:40:51.886Z,19.59
2022-11-07T09:46:12.188Z,19.68
2022-11-07T09:51:38.517Z,19.65
2022-11-07T09:56:42.451Z,19.69
2022-11-07T10:01:47.728Z,19.75
2022-11-07T10:07:07.376Z,19.65
2022-11-07T10:12:17.380Z,19.76
2022-11-07T10:17:31.233Z,19.72
2022-11-07T10:22:35.697Z,19.74
2022-11-07T10:27:38.903Z,19.63
2022-11-07T10:32:56.988Z,19.73
2022-11-07T10:38:01.987Z,19.68
2022-11-07T10:43:07.572Z,19.69
2022-11-07T10:48:13.704Z,19.69
2022-11-07T10:53:19.806Z,19.73
2022-11-07T10:58:27.980Z,19.67
2022-11-07T11:03:43.776Z,19.72
2022-11-07T11:08:48.076Z,19.60
2022-11-07T11:14:01.197Z,19.49
2022-11-07T11:19:03.834Z,19.45
2022-11-07T11:24:14.724Z,19.50
2022-11-07T11:29:43.523Z,19.67
2022-11-07T11:35:08.575Z,19.73
2022-11-07T11:40:22.693Z,19.84
2022-11-07T11:45:55.393Z,19.76
2022-11-07T11:51:05.548Z,19.83
2022-11-07T11:56:07.145Z,19.75
2022-11-07T12:06:38.682Z,19.83
2022-11-07T12:11:48.288Z,19.91
2022-11-07T12:17:05.866Z,19.93
2022-11-07T12:22:19.750Z,19.84
2022-11-07T12:27:27.116Z,19.80
2022-11-07T12:32:44.106Z,19.84
2022-11-07T12:38:15.539Z,19.92
2022-11-07T12:43:32.476Z,19.81
2022-11-07T12:48:57.319Z,19.73
2022-11-07T12:54:37.758Z,19.75
2022-11-07T12:59:43.665Z,19.84
2022-11-07T13:05:04.008Z,19.79
2022-11-07T13:10:16.138Z,19.73
2022-11-07T13:15:18.529Z,19.81
2022-11-07T13:20:31.411Z,19.81
2022-11-07T13:25:34.936Z,19.74
2022-11-07T13:30:40.272Z,19.78
2022-11-07T13:35:54.339Z,19.78
2022-11-07T13:41:07.786Z,19.80
2022-11-07T13:46:21.767Z,19.74
2022-11-07T13:51:37.588Z,19.74
2022-11-07T13:56:47.365Z,19.78
2022-11-07T14:01:56.819Z,19.85
2022-11-07T14:07:01.657Z,19.81
2022-11-07T14:12:03.710Z,19.75
2022-11-07T14:17:05.562Z,19.75
2022-11-07T14:22:21.790Z,19.78
2022-11-07T14:27:25.051Z,19.75
2022-11-07T14:32:31.726Z,19.75
2022-11-07T14:37:34.878Z,19.75
2022-11-07T14:42:36.881Z,19.70
2022-11-07T14:47:39.518Z,19.83
2022-11-07T14:52:53.503Z,19.78
2022-11-07T14:57:55.472Z,19.95
2022-11-07T15:02:58.949Z,19.81
2022-11-07T15:08:02.368Z,19.77
2022-11-07T15:13:18.733Z,19.76
2022-11-07T15:18:27.678Z,19.77
2022-11-07T15:23:32.263Z,19.75
2022-11-07T15:28:43.285Z,19.83
2022-11-07T15:33:45.366Z,19.94
2022-11-07T15:38:48.655Z,19.78
2022-11-07T15:43:50.488Z,19.82
2022-11-07T15:48:52.968Z,19.85
2022-11-07T15:53:54.763Z,19.79
2022-11-07T15:58:56.752Z,19.74
2022-11-07T16:03:58.411Z,19.79
2022-11-07T16:09:00.168Z,19.78
2022-11-07T16:14:35.101Z,19.79
2022-11-07T16:19:29.996Z,19.83
2022-11-07T16:24:32.047Z,19.88
2022-11-07T16:29:34.109Z,19.79
2022-11-07T16:34:36.217Z,19.84
2022-11-07T16:39:38.760Z,19.89
2022-11-07T16:44:41.128Z,19.81
2022-11-07T16:49:43.449Z,19.72
2022-11-07T16:54:46.442Z,19.67
2022-11-07T16:59:48.387Z,19.72
2022-11-07T17:04:51.891Z,19.79
2022-11-07T17:09:53.956Z,19.79
2022-11-07T17:14:55.774Z,19.74
2022-11-07T17:19:57.725Z,19.70
2022-11-07T17:24:59.526Z,19.77
2022-11-07T17:30:04.616Z,19.77
2022-11-07T17:35:31.201Z,19.79
2022-11-07T17:40:34.804Z,19.76
2022-11-07T17:45:36.960Z,19.78
2022-11-07T17:50:38.699Z,19.81
2022-11-07T17:55:40.500Z,19.70
2022-11-07T18:00:42.242Z,19.79
2022-11-07T18:05:44.194Z,19.76
2022-11-07T18:10:45.831Z,19.83
2022-11-07T18:15:47.550Z,19.79
2022-11-07T18:20:49.954Z,19.76
2022-11-07T18:26:01.945Z,19.70
2022-11-07T18:31:10.456Z,19.83
2022-11-07T18:36:15.172Z,19.71
2022-11-07T18:41:19.925Z,19.77
2022-11-07T18:46:22.686Z,19.82
2022-11-07T18:51:24.929Z,19.75
2022-11-07T18:56:27.016Z,19.83
2022-11-07T19:01:32.544Z,19.75
2022-11-07T19:06:34.694Z,19.79
2022-11-07T19:11:36.365Z,19.76
2022-11-07T19:16:38.105Z,19.75
2022-11-07T19:21:42.824Z,19.83
2022-11-07T19:26:45.912Z,19.79
2022-11-07T19:31:47.765Z,19.81
2022-11-07T19:36:49.636Z,19.82
2022-11-07T19:41:51.731Z,19.75
2022-11-07T19:46:53.552Z,19.79
2022-11-07T19:51:55.807Z,19.79
2022-11-07T19:56:57.930Z,19.85
2022-11-07T20:02:30.731Z,19.83
2022-11-07T20:07:22.321Z,19.79
2022-11-07T20:12:24.500Z,19.85
2022-11-07T20:17:26.846Z,19.89
2022-11-07T20:22:29.574Z,19.84
2022-11-07T20:27:33.116Z,19.89
2022-11-07T20:32:35.914Z,19.83
2022-11-07T20:37:38.203Z,19.84
2022-11-07T20:42:40.546Z,19.85
2022-11-07T20:47:42.740Z,19.81
2022-11-07T20:52:44.489Z,19.90
2022-11-07T20:57:46.503Z,19.89
2022-11-07T21:02:48.564Z,19.88
2022-11-07T21:07:50.985Z,19.76
2022-11-07T21:12:53.774Z,19.89
2022-11-07T21:17:55.803Z,19.84
2022-11-07T21:22:58.132Z,19.87
2022-11-07T21:28:00.414Z,19.87
2022-11-07T21:33:02.215Z,19.89
2022-11-07T21:38:03.938Z,19.92
2022-11-07T21:43:05.803Z,19.92
2022-11-07T21:48:08.120Z,19.84
2022-11-07T21:53:10.028Z,19.78
2022-11-07T21:58:11.832Z,19.84
2022-11-07T22:03:13.765Z,19.85
2022-11-07T22:08:21.074Z,19.81
2022-11-07T22:13:25.422Z,19.76
2022-11-07T22:18:27.438Z,19.76
2022-11-07T22:23:33.980Z,19.78
2022-11-07T22:28:38.530Z,19.73
2022-11-07T22:33:43.687Z,19.77
2022-11-07T22:38:45.967Z,19.86
2022-11-07T22:43:48.353Z,19.79
2022-11-07T22:48:51.750Z,19.86
2022-11-07T22:54:02.592Z,19.82
2022-11-07T22:59:05.968Z,19.81
2022-11-07T23:04:12.281Z,19.81
2022-11-07T23:09:15.898Z,19.86
2022-11-07T23:14:20.052Z,19.72
2022-11-07T23:19:25.127Z,19.85
2022-11-07T23:24:27.240Z,19.74
2022-11-07T23:29:29.056Z,19.75
2022-11-07T23:34:31.054Z,19.81
2022-11-07T23:39:32.862Z,19.79
2022-11-07T23:44:54.829Z,19.84
2022-11-07T23:50:15.192Z,19.76
2022-11-07T23:55:35.826Z,19.76
